Time;durP1;ratioP1;P1;durP2;ratioP2;P2;SDS_P1;SDS_P2;PMS_P1;PMS_P2;Temp;Humidity;BMP_temperature;BMP_pressure;BME280_temperature;BME280_humidity;BME280_pressure;Samples;Min_cycle;Max_cycle;Signal;HPM_P1;HPM_P2
2022/10/12 00:02:22;;;;;;;5.97;2.13;;;;;;;7.33;83.98;101574.63;5040756;28;20252;-82
2022/10/12 00:04:48;;;;;;;4.30;1.90;;;;;;;7.34;84.01;101597.16;5040471;28;20706;-81
2022/10/12 00:07:15;;;;;;;7.07;1.97;;;;;;;7.41;83.25;101606.78;5041927;28;20209;-81
2022/10/12 00:09:41;;;;;;;3.20;1.90;;;;;;;7.42;83.47;101612.84;5041271;28;20206;-80
2022/10/12 00:12:08;;;;;;;4.00;1.50;;;;;;;7.45;83.77;101620.69;5040865;28;20233;-82
2022/10/12 00:14:35;;;;;;;4.90;1.60;;;;;;;7.39;85.19;101592.88;5040595;28;20207;-81
2022/10/12 00:17:02;;;;;;;14.73;4.13;;;;;;;7.29;85.75;101578.91;5041121;28;20206;-80
2022/10/12 00:19:30;;;;;;;7.13;2.20;;;;;;;7.36;85.49;101569.50;5040870;28;20216;-81
2022/10/12 00:21:56;;;;;;;6.27;2.03;;;;;;;7.36;84.86;101583.34;5040556;28;20226;-81
2022/10/12 00:24:22;;;;;;;4.47;1.60;;;;;;;7.40;84.79;101588.59;5044480;28;20235;-82
2022/10/12 00:26:49;;;;;;;3.20;2.07;;;;;;;7.37;85.13;101594.59;5044526;28;20581;-81
2022/10/12 00:29:16;;;;;;;4.43;2.43;;;;;;;7.29;85.28;101593.63;5044306;28;20213;-81
2022/10/12 00:31:42;;;;;;;3.77;2.20;;;;;;;7.24;84.47;101595.31;5044754;28;20234;-80
2022/10/12 00:34:09;;;;;;;5.60;2.60;;;;;;;7.23;84.36;101614.31;5044064;28;20229;-81
2022/10/12 00:36:37;;;;;;;3.93;2.80;;;;;;;7.17;85.34;101602.13;5044007;28;20219;-81
2022/10/12 00:39:06;;;;;;;5.70;2.77;;;;;;;7.21;85.18;101590.06;5044064;28;20214;-82
2022/10/12 00:41:35;;;;;;;6.87;2.60;;;;;;;7.18;85.65;101582.25;5043466;28;20208;-81
2022/10/12 00:44:02;;;;;;;3.03;2.30;;;;;;;7.11;85.62;101584.72;5044121;28;20192;-81
2022/10/12 00:46:32;;;;;;;5.80;2.03;;;;;;;7.08;84.05;101589.03;5043777;28;20210;-81
2022/10/12 00:49:07;;;;;;;5.57;2.33;;;;;;;7.07;83.76;101606.31;5043564;28;20213;-82
2022/10/12 00:51:34;;;;;;;3.50;1.53;;;;;;;7.10;85.22;101606.38;5044352;28;20212;-80
2022/10/12 00:54:05;;;;;;;4.23;2.00;;;;;;;7.10;85.26;101597.72;5043789;28;20202;-81
2022/10/12 00:56:36;;;;;;;7.03;2.50;;;;;;;7.06;86.01;101583.81;5043068;28;20212;-80
2022/10/12 00:59:06;;;;;;;3.40;1.50;;;;;;;7.02;85.64;101560.41;5043205;28;20207;-83
2022/10/12 01:01:35;;;;;;;5.10;1.37;;;;;;;7.01;85.48;101563.81;5042809;28;20208;-80
2022/10/12 01:04:03;;;;;;;3.73;1.50;;;;;;;6.96;85.69;101571.56;5043749;28;20210;-82
2022/10/12 01:06:30;;;;;;;4.70;1.33;;;;;;;6.95;85.37;101580.19;5043482;28;20213;-81
2022/10/12 01:08:57;;;;;;;4.70;1.57;;;;;;;6.97;86.00;101566.38;5043131;28;20236;-81
2022/10/12 01:11:25;;;;;;;6.80;1.80;;;;;;;7.03;86.83;101544.81;5042552;28;20237;-80
2022/10/12 01:13:52;;;;;;;4.87;2.07;;;;;;;7.05;86.95;101529.28;5043634;28;20210;-81
2022/10/12 01:16:25;;;;;;;5.17;2.33;;;;;;;7.05;86.92;101529.28;5043174;28;20206;-81
2022/10/12 01:18:59;;;;;;;4.33;1.80;;;;;;;7.04;86.46;101524.94;5044004;28;20214;-81
2022/10/12 01:21:26;;;;;;;9.07;1.87;;;;;;;6.94;86.73;101540.38;5042208;28;20202;-81
2022/10/12 01:24:07;;;;;;;6.00;1.50;;;;;;;6.97;87.79;101524.84;5043168;28;20214;-81
2022/10/12 01:26:50;;;;;;;6.87;1.90;;;;;;;6.93;87.98;101498.81;5042595;28;20194;-81
2022/10/12 01:29:34;;;;;;;5.47;1.87;;;;;;;6.97;87.88;101495.41;5042601;28;20213;-81
2022/10/12 01:32:09;;;;;;;3.50;1.60;;;;;;;6.91;87.59;101516.09;5041974;28;20247;-80
2022/10/12 01:34:44;;;;;;;4.50;2.10;;;;;;;6.99;87.95;101511.03;5041292;28;20213;-81
2022/10/12 01:37:18;;;;;;;4.20;2.33;;;;;;;7.03;87.44;101516.25;5042775;28;20205;-81
2022/10/12 01:39:50;;;;;;;4.83;1.70;;;;;;;7.10;87.77;101510.31;5042349;28;20213;-80
2022/10/12 01:42:23;;;;;;;7.57;1.70;;;;;;;7.01;88.13;101510.19;5041980;28;20233;-80
2022/10/12 01:44:49;;;;;;;5.10;1.63;;;;;;;6.95;86.90;101513.56;5042209;28;20202;-81
2022/10/12 01:47:17;;;;;;;5.63;1.70;;;;;;;7.03;87.33;101518.84;5042509;28;20213;-81
2022/10/12 01:49:44;;;;;;;3.57;1.50;;;;;;;7.06;87.44;101523.25;5041417;28;20209;-82
2022/10/12 01:52:35;;;;;;;4.40;1.10;;;;;;;7.02;88.42;101498.97;5041955;28;20234;-81
2022/10/12 01:55:10;;;;;;;6.10;2.73;;;;;;;7.01;88.23;101489.41;5039289;28;20206;-81
2022/10/12 01:57:50;;;;;;;4.93;1.80;;;;;;;6.96;88.79;101493.69;5041431;28;20210;-81
2022/10/12 02:00:18;;;;;;;3.83;1.50;;;;;;;6.93;87.68;101484.13;5041113;28;20274;-81
2022/10/12 02:02:54;;;;;;;5.73;1.80;;;;;;;6.99;87.83;101495.44;5040775;28;20230;-81
2022/10/12 02:05:30;;;;;;;3.93;1.47;;;;;;;6.96;88.12;101498.88;5041085;28;20236;-81
2022/10/12 02:08:03;;;;;;;4.13;1.73;;;;;;;6.98;88.00;101497.19;5041105;28;20225;-81
2022/10/12 02:10:40;;;;;;;4.37;1.23;;;;;;;6.94;88.13;101493.66;5040912;28;20230;-81
2022/10/12 02:13:11;;;;;;;4.90;1.30;;;;;;;6.99;87.43;101514.47;5040765;28;20249;-81
2022/10/12 02:15:41;;;;;;;4.17;1.23;;;;;;;6.90;87.41;101516.97;5041354;28;20206;-80
2022/10/12 02:18:12;;;;;;;2.37;0.97;;;;;;;6.99;86.61;101535.25;5041633;28;20205;-81
2022/10/12 02:20:40;;;;;;;4.90;1.37;;;;;;;6.87;85.34;101567.09;5040817;28;20213;-80
2022/10/12 02:23:07;;;;;;;4.60;1.37;;;;;;;6.87;84.49;101585.25;5040520;28;20233;-81
2022/10/12 02:25:35;;;;;;;4.30;1.73;;;;;;;6.81;85.75;101597.28;5040827;28;20689;-81
2022/10/12 02:28:07;;;;;;;10.37;2.73;;;;;;;6.74;86.18;101573.84;5049541;28;20189;-80
2022/10/12 02:30:37;;;;;;;4.53;1.70;;;;;;;6.70;86.20;101553.00;5054396;28;20222;-80
2022/10/12 02:33:07;;;;;;;5.17;1.63;;;;;;;6.70;85.45;101571.16;5054735;28;20226;-80
2022/10/12 02:35:41;;;;;;;2.50;1.67;;;;;;;6.71;85.30;101580.69;5054950;28;20211;-81
2022/10/12 02:38:13;;;;;;;6.40;1.50;;;;;;;6.64;84.41;101590.13;5054799;28;20228;-80
2022/10/12 02:40:47;;;;;;;3.17;1.50;;;;;;;6.65;85.46;101585.78;5054127;28;20194;-81
2022/10/12 02:43:17;;;;;;;6.00;2.30;;;;;;;6.61;85.47;101586.59;5053890;28;20233;-81
2022/10/12 02:45:47;;;;;;;4.27;1.63;;;;;;;6.53;85.76;101570.91;5052762;28;20217;-80
2022/10/12 02:48:17;;;;;;;4.13;2.53;;;;;;;6.52;85.57;101572.63;5044212;28;20210;-80
2022/10/12 02:50:48;;;;;;;3.97;2.00;;;;;;;6.41;85.69;101573.31;5044135;28;20229;-81
2022/10/12 02:53:15;;;;;;;7.10;2.30;;;;;;;6.35;86.42;101563.69;5044883;28;20307;-81
2022/10/12 02:55:48;;;;;;;10.60;1.80;;;;;;;6.32;86.35;101548.97;5044694;28;20217;-81
2022/10/12 02:58:14;;;;;;;3.60;2.07;;;;;;;6.33;86.29;101540.34;5044913;28;20206;-81
2022/10/12 03:00:40;;;;;;;6.47;2.60;;;;;;;6.29;85.74;101540.28;5044182;28;20213;-81
2022/10/12 03:03:07;;;;;;;3.70;1.73;;;;;;;6.27;85.65;101542.84;5045029;28;20226;-81
2022/10/12 03:05:33;;;;;;;2.63;1.37;;;;;;;6.24;85.73;101558.31;5044196;28;20210;-82
2022/10/12 03:08:01;;;;;;;5.33;1.47;;;;;;;6.18;86.30;101542.66;5044586;28;20213;-81
2022/10/12 03:10:28;;;;;;;2.83;1.30;;;;;;;6.21;85.01;101552.25;5043698;28;20691;-81
2022/10/12 03:12:54;;;;;;;5.20;1.27;;;;;;;6.19;84.96;101566.91;5043931;28;20229;-81
2022/10/12 03:15:21;;;;;;;4.60;1.43;;;;;;;6.11;84.71;101567.63;5044650;28;20208;-81
2022/10/12 03:17:47;;;;;;;6.57;1.40;;;;;;;6.17;85.75;101564.28;5044132;28;20202;-81
2022/10/12 03:20:14;;;;;;;2.23;1.40;;;;;;;6.20;85.41;101558.25;5043863;28;20212;-80
2022/10/12 03:22:41;;;;;;;3.07;1.30;;;;;;;6.13;86.46;101546.91;5044602;28;20226;-81
2022/10/12 03:25:09;;;;;;;4.67;1.40;;;;;;;6.07;85.23;101542.50;5045625;28;20210;-80
2022/10/12 03:27:35;;;;;;;3.43;1.40;;;;;;;6.12;85.00;101537.38;5044250;28;20212;-81
2022/10/12 03:30:02;;;;;;;4.50;1.30;;;;;;;6.14;85.72;101556.41;5044793;28;20202;-82
2022/10/12 03:32:28;;;;;;;4.07;1.30;;;;;;;6.11;84.89;101557.25;5044762;28;20234;-80
2022/10/12 03:34:55;;;;;;;3.37;1.27;;;;;;;6.12;84.69;101558.97;5045466;28;20301;-82
2022/10/12 03:37:22;;;;;;;7.03;1.57;;;;;;;6.04;85.94;101541.56;5044095;28;20202;-81
2022/10/12 03:39:48;;;;;;;6.93;1.30;;;;;;;6.06;85.27;101542.47;5043819;28;20206;-80
2022/10/12 03:42:16;;;;;;;4.80;1.40;;;;;;;6.02;85.52;101551.03;5043698;28;20226;-81
2022/10/12 03:44:42;;;;;;;5.20;1.30;;;;;;;5.94;85.61;101551.72;5043702;28;20228;-80
2022/10/12 03:47:09;;;;;;;3.30;1.53;;;;;;;5.94;85.98;101523.22;5044941;28;20210;-81
2022/10/12 03:49:35;;;;;;;4.03;1.17;;;;;;;5.87;86.16;101529.16;5043419;28;20220;-81
2022/10/12 03:52:01;;;;;;;4.10;1.20;;;;;;;5.83;87.04;101504.03;5043355;28;20230;-81
2022/10/12 03:54:28;;;;;;;2.87;1.30;;;;;;;5.86;85.52;101504.06;5044147;28;20205;-81
2022/10/12 03:56:54;;;;;;;1.83;1.07;;;;;;;5.86;86.29;101503.22;5043370;28;20219;-81
2022/10/12 03:59:22;;;;;;;3.10;1.20;;;;;;;5.86;86.26;101504.06;5042981;28;20221;-81
2022/10/12 04:01:49;;;;;;;6.10;1.80;;;;;;;5.85;85.94;101497.16;5042595;28;20226;-80
2022/10/12 04:04:15;;;;;;;3.80;1.20;;;;;;;5.86;86.41;101500.63;5043847;28;20206;-81
2022/10/12 04:06:42;;;;;;;3.73;1.50;;;;;;;5.89;85.91;101508.47;5043260;28;20206;-82
2022/10/12 04:09:08;;;;;;;3.80;1.33;;;;;;;5.89;86.33;101513.66;5043497;28;20229;-80
2022/10/12 04:11:35;;;;;;;5.10;1.10;;;;;;;5.86;86.50;101495.44;5042579;28;20308;-81
2022/10/12 04:14:01;;;;;;;3.20;1.57;;;;;;;5.86;85.58;101504.06;5043586;28;20237;-81
2022/10/12 04:16:29;;;;;;;5.63;1.47;;;;;;;5.88;85.86;101497.19;5044868;28;20210;-82
2022/10/12 04:18:55;;;;;;;2.57;1.57;;;;;;;5.91;85.79;101518.00;5044158;28;20208;-81
2022/10/12 04:21:24;;;;;;;5.80;1.33;;;;;;;5.87;85.46;101518.78;5042096;28;20290;-82
2022/10/12 04:23:50;;;;;;;3.77;1.03;;;;;;;5.80;86.19;101516.06;5042613;28;20211;-82
2022/10/12 04:26:19;;;;;;;4.07;1.30;;;;;;;5.82;85.33;101509.19;5046882;28;20613;-81
2022/10/12 04:28:46;;;;;;;5.80;1.37;;;;;;;5.77;85.93;101509.97;5046589;28;20213;-81
2022/10/12 04:31:12;;;;;;;5.10;1.30;;;;;;;5.71;86.68;101502.09;5043231;28;20222;-82
2022/10/12 04:33:40;;;;;;;5.13;1.50;;;;;;;5.71;86.18;101490.88;5043579;28;20232;-80
2022/10/12 04:36:07;;;;;;;4.00;1.03;;;;;;;5.65;86.46;101491.63;5043615;28;20213;-82
2022/10/12 04:38:33;;;;;;;4.07;1.20;;;;;;;5.69;85.96;101500.31;5043586;28;20213;-81
2022/10/12 04:41:00;;;;;;;3.33;0.93;;;;;;;5.67;85.64;101504.59;5043691;28;20206;-82
2022/10/12 04:43:26;;;;;;;3.00;1.20;;;;;;;5.63;85.95;101501.09;5043572;28;20245;-82
2022/10/12 04:45:57;;;;;;;4.87;1.13;;;;;;;5.66;85.87;101492.50;5043354;28;20206;-82
2022/10/12 04:48:24;;;;;;;3.93;1.73;;;;;;;5.67;85.24;101504.59;5043809;28;20241;-82
2022/10/12 04:50:52;;;;;;;3.43;1.20;;;;;;;5.71;85.44;101512.47;5043102;28;20210;-82
2022/10/12 04:53:19;;;;;;;4.23;2.07;;;;;;;5.65;85.17;101520.13;5043438;28;20241;-82
2022/10/12 04:55:46;;;;;;;2.93;1.40;;;;;;;5.69;85.02;101527.09;5042493;28;20210;-82
2022/10/12 04:58:12;;;;;;;5.60;1.20;;;;;;;5.60;84.81;101539.00;5043257;28;20213;-82
2022/10/12 05:00:39;;;;;;;12.47;1.50;;;;;;;5.59;85.03;101540.72;5043742;28;20216;-81
2022/10/12 05:03:05;;;;;;;2.90;1.30;;;;;;;5.57;84.83;101550.19;5043960;28;20229;-81
2022/10/12 05:05:33;;;;;;;3.93;1.63;;;;;;;5.57;84.98;101540.69;5043968;28;20202;-81
2022/10/12 05:08:01;;;;;;;2.73;1.80;;;;;;;5.60;84.34;101557.13;5044245;28;20310;-81
2022/10/12 05:10:32;;;;;;;1.57;1.40;;;;;;;5.52;84.56;101560.44;5048050;28;20212;-82
2022/10/12 05:12:59;;;;;;;4.33;1.90;;;;;;;5.48;84.57;101558.63;5047357;28;20240;-82
2022/10/12 05:15:26;;;;;;;3.53;1.77;;;;;;;5.52;84.33;101562.16;5046853;28;20210;-81
2022/10/12 05:17:52;;;;;;;4.00;1.47;;;;;;;5.50;85.21;101561.25;5047652;28;20254;-82
2022/10/12 05:20:18;;;;;;;5.03;1.67;;;;;;;5.52;84.53;101555.25;5047439;28;20213;-81
2022/10/12 05:22:45;;;;;;;3.47;1.50;;;;;;;5.48;84.99;101547.41;5046360;28;20226;-82
2022/10/12 05:25:13;;;;;;;3.00;1.90;;;;;;;5.53;84.01;101561.31;5046733;28;20212;-81
2022/10/12 05:27:39;;;;;;;4.03;3.63;;;;;;;5.47;84.05;101581.91;5047286;28;20202;-81
2022/10/12 05:30:07;;;;;;;5.90;2.13;;;;;;;5.40;84.03;101565.38;5046814;28;20210;-82
2022/10/12 05:32:34;;;;;;;3.53;2.27;;;;;;;5.36;84.89;101559.25;5047173;28;20261;-82
2022/10/12 05:35:00;;;;;;;4.13;2.43;;;;;;;5.37;85.71;101532.53;5044922;28;20217;-80
2022/10/12 05:37:27;;;;;;;4.40;2.53;;;;;;;5.37;86.29;101506.66;5024252;28;20590;-82
2022/10/12 05:39:53;;;;;;;2.60;2.10;;;;;;;5.31;85.59;101510.81;5022258;28;20861;-83
2022/10/12 05:42:21;;;;;;;4.13;2.13;;;;;;;5.20;85.99;101496.81;5021797;28;20734;-81
2022/10/12 05:44:47;;;;;;;6.17;1.80;;;;;;;5.28;85.55;101503.88;5023024;28;20210;-81
2022/10/12 05:47:14;;;;;;;2.43;2.10;;;;;;;5.27;84.52;101527.13;5022043;28;20215;-80
2022/10/12 05:49:40;;;;;;;6.97;3.07;;;;;;;5.24;84.67;101537.44;5023171;28;20203;-81
2022/10/12 05:52:07;;;;;;;5.50;2.67;;;;;;;5.17;85.51;101528.66;5022884;28;20230;-81
2022/10/12 05:54:33;;;;;;;3.33;2.97;;;;;;;5.17;85.26;101519.19;5022278;28;20203;-81
2022/10/12 05:56:59;;;;;;;3.40;2.73;;;;;;;5.21;85.63;101501.13;5024483;28;20207;-81
2022/10/12 05:59:27;;;;;;;5.27;2.60;;;;;;;5.23;85.44;101502.88;5023791;28;20220;-80
2022/10/12 06:01:54;;;;;;;3.67;2.60;;;;;;;5.30;86.42;101485.78;5023035;28;20230;-81
2022/10/12 06:04:20;;;;;;;4.10;1.80;;;;;;;5.37;86.83;101467.81;5022997;28;20207;-81
2022/10/12 06:06:47;;;;;;;4.90;2.80;;;;;;;5.37;85.98;101469.50;5023220;28;20210;-81
2022/10/12 06:09:13;;;;;;;5.73;2.20;;;;;;;5.38;87.06;101461.78;5020893;28;20213;-80
2022/10/12 06:11:40;;;;;;;3.93;2.60;;;;;;;5.33;86.64;101465.13;5019595;28;20214;-80
2022/10/12 06:14:07;;;;;;;3.97;2.43;;;;;;;5.31;85.87;101466.81;5019796;28;20211;-81
2022/10/12 06:16:34;;;;;;;2.50;2.07;;;;;;;5.38;86.12;101472.13;5019944;28;20221;-81
2022/10/12 06:19:01;;;;;;;2.33;1.90;;;;;;;5.27;86.89;101478.84;5020446;28;20211;-81
2022/10/12 06:21:27;;;;;;;8.10;2.20;;;;;;;5.28;86.28;101477.13;5019375;28;20256;-81
2022/10/12 06:23:54;;;;;;;5.63;2.93;;;;;;;5.32;87.34;101447.84;5020950;28;20207;-84
2022/10/12 06:26:20;;;;;;;4.87;2.53;;;;;;;5.32;88.12;101432.31;5019971;28;20210;-82
2022/10/12 06:28:47;;;;;;;4.63;2.70;;;;;;;5.43;87.88;101427.31;5019445;28;20210;-80
2022/10/12 06:31:13;;;;;;;6.00;3.23;;;;;;;5.44;87.79;101418.72;5019347;28;20211;-82
2022/10/12 06:33:41;;;;;;;9.23;3.43;;;;;;;5.41;88.76;101408.31;5020522;28;20317;-84
2022/10/12 06:36:08;;;;;;;4.80;3.17;;;;;;;5.47;88.85;101395.47;5010223;28;20207;-84
2022/10/12 06:38:34;;;;;;;6.83;3.53;;;;;;;5.50;89.26;101386.03;5008072;28;20202;-82
2022/10/12 06:41:00;;;;;;;4.87;3.13;;;;;;;5.57;88.91;101376.66;5008420;28;20207;-80
2022/10/12 06:43:27;;;;;;;6.70;2.60;;;;;;;5.61;88.14;101383.66;5002050;28;20239;-81
2022/10/12 06:45:54;;;;;;;4.83;3.10;;;;;;;5.60;88.46;101412.09;5000064;28;20218;-80
2022/10/12 06:48:20;;;;;;;4.77;3.10;;;;;;;5.58;88.55;101407.75;4999591;28;20203;-80
2022/10/12 06:50:48;;;;;;;3.67;2.90;;;;;;;5.63;88.63;101407.84;4999543;28;20195;-81
2022/10/12 06:53:15;;;;;;;4.60;3.10;;;;;;;5.68;88.94;101406.19;5008658;28;20712;-82
2022/10/12 06:55:41;;;;;;;4.33;3.60;;;;;;;5.71;89.00;101395.91;5009210;28;20585;-83
2022/10/12 06:58:08;;;;;;;5.33;3.67;;;;;;;5.62;90.23;101377.59;5010268;28;20200;-82
2022/10/12 07:00:35;;;;;;;6.93;3.40;;;;;;;5.67;90.72;101359.53;5007812;28;20200;-83
2022/10/12 07:03:01;;;;;;;6.07;3.87;;;;;;;5.74;91.24;101348.44;5009286;28;20302;-82
2022/10/12 07:05:28;;;;;;;7.57;3.90;;;;;;;5.82;91.06;101349.41;5030130;28;20214;-81
2022/10/12 07:07:56;;;;;;;3.40;3.00;;;;;;;5.87;90.83;101355.56;5038728;28;20205;-81
2022/10/12 07:10:23;;;;;;;3.40;2.53;;;;;;;5.86;89.64;101364.16;5037146;28;21101;-82
2022/10/12 07:12:50;;;;;;;4.53;3.00;;;;;;;5.92;89.62;101374.63;5019976;28;20241;-81
2022/10/12 07:15:16;;;;;;;8.77;3.10;;;;;;;5.98;89.35;101379.06;5017938;28;20207;-82
2022/10/12 07:17:43;;;;;;;6.53;2.93;;;;;;;6.05;89.70;101387.81;5018722;28;20215;-82
2022/10/12 07:20:09;;;;;;;4.03;2.93;;;;;;;6.07;89.67;101391.31;5017622;28;20211;-82
2022/10/12 07:22:36;;;;;;;9.00;2.80;;;;;;;6.11;89.27;101387.91;5025597;28;20218;-83
2022/10/12 07:25:05;;;;;;;6.33;2.80;;;;;;;6.14;89.78;101388.81;5037814;28;20217;-82
2022/10/12 07:27:31;;;;;;;5.60;2.43;;;;;;;6.19;89.23;101388.03;5033321;28;20198;-82
2022/10/12 07:29:58;;;;;;;7.73;3.67;;;;;;;6.24;89.72;101379.44;5037927;28;20210;-85
2022/10/12 07:32:24;;;;;;;3.93;2.30;;;;;;;6.28;89.44;101383.84;5035398;28;20625;-81
2022/10/12 07:34:50;;;;;;;4.77;2.53;;;;;;;6.27;90.90;101356.16;5030582;28;20687;-84
2022/10/12 07:37:17;;;;;;;5.23;3.40;;;;;;;6.23;91.07;101345.72;5036070;28;20280;-83
2022/10/12 07:39:43;;;;;;;5.37;4.10;;;;;;;6.24;91.88;101322.41;5037027;28;20207;-85
2022/10/12 07:42:11;;;;;;;4.40;3.47;;;;;;;6.35;91.87;101305.25;5032231;28;20229;-82
2022/10/12 07:44:38;;;;;;;7.90;3.80;;;;;;;6.44;91.91;101301.94;5037621;28;20712;-82
2022/10/12 07:47:04;;;;;;;5.13;3.67;;;;;;;6.52;92.64;101300.28;5036760;28;20213;-84
2022/10/12 07:49:31;;;;;;;6.00;3.70;;;;;;;6.60;92.46;101304.69;5031806;28;20596;-85
2022/10/12 07:51:57;;;;;;;4.70;4.07;;;;;;;6.69;92.29;101307.38;5037965;28;20708;-85
2022/10/12 07:54:24;;;;;;;7.20;3.90;;;;;;;6.71;92.68;101314.31;5038001;28;20595;-85
2022/10/12 07:56:50;;;;;;;4.60;4.10;;;;;;;6.73;92.49;101304.81;5037170;28;20224;-83
2022/10/12 07:59:18;;;;;;;6.67;3.97;;;;;;;6.72;92.86;101297.06;5038194;28;20285;-84
2022/10/12 08:01:44;;;;;;;7.13;4.30;;;;;;;6.65;94.64;101285.72;5036569;28;20720;-81
2022/10/12 08:04:11;;;;;;;6.87;4.23;;;;;;;6.65;94.96;101264.97;5032343;28;20198;-79
2022/10/12 08:06:37;;;;;;;7.80;3.87;;;;;;;6.63;95.65;101250.25;5038021;28;20206;-81
2022/10/12 08:09:04;;;;;;;7.73;4.57;;;;;;;6.52;96.86;101229.38;5038830;28;20232;-80
2022/10/12 08:11:31;;;;;;;7.13;4.33;;;;;;;6.53;97.82;101198.25;5031495;28;20191;-82
2022/10/12 08:13:57;;;;;;;8.43;4.97;;;;;;;6.65;99.09;101188.88;5033671;28;20222;-81
2022/10/12 08:16:25;;;;;;;8.90;4.97;;;;;;;6.80;99.47;101177.75;5034731;28;20206;-80
2022/10/12 08:18:52;;;;;;;7.53;5.10;;;;;;;6.85;100.00;101173.47;5033677;28;20208;-81
2022/10/12 08:21:18;;;;;;;7.50;4.63;;;;;;;6.96;100.00;101177.03;5036986;28;20197;-81
2022/10/12 08:23:46;;;;;;;6.23;4.90;;;;;;;7.07;100.00;101193.53;5038478;28;20221;-82
2022/10/12 08:26:13;;;;;;;8.17;5.27;;;;;;;7.15;99.57;101201.38;5031273;28;20691;-82
2022/10/12 08:28:40;;;;;;;9.57;4.60;;;;;;;7.18;99.60;101205.75;5034767;28;20552;-84
2022/10/12 08:31:08;;;;;;;5.47;4.67;;;;;;;7.20;99.76;101210.09;5034685;28;20212;-82
2022/10/12 08:33:36;;;;;;;5.97;4.30;;;;;;;7.24;99.90;101211.00;5035449;28;20222;-80
2022/10/12 08:36:04;;;;;;;8.10;4.30;;;;;;;7.22;100.00;101208.38;5037029;28;20229;-82
2022/10/12 08:38:31;;;;;;;5.37;3.97;;;;;;;7.19;100.00;101204.88;5035333;28;20195;-85
2022/10/12 08:41:04;;;;;;;6.47;4.03;;;;;;;7.12;100.00;101204.84;5034895;28;20202;-82
2022/10/12 08:43:39;;;;;;;7.97;4.37;;;;;;;7.09;100.00;101202.22;5035673;28;20234;-82
2022/10/12 08:46:06;;;;;;;10.37;5.40;;;;;;;7.10;100.00;101193.56;5041060;28;20210;-82
2022/10/12 08:48:44;;;;;;;7.20;5.13;;;;;;;7.12;100.00;101189.25;5041069;28;20665;-81
2022/10/12 08:51:14;;;;;;;7.00;3.93;;;;;;;7.15;100.00;101191.91;5038081;28;20198;-84
2022/10/12 08:53:47;;;;;;;9.90;4.87;;;;;;;7.17;100.00;101197.06;5038015;28;20272;-82
2022/10/12 08:56:16;;;;;;;7.47;4.47;;;;;;;7.25;100.00;101204.94;5034184;28;20202;-81
2022/10/12 08:58:44;;;;;;;6.63;4.07;;;;;;;7.29;100.00;101202.34;5041489;28;20198;-82
2022/10/12 09:01:18;;;;;;;7.57;4.13;;;;;;;7.35;100.00;101198.94;5040780;28;20198;-81
2022/10/12 09:04:01;;;;;;;7.27;3.93;;;;;;;7.43;100.00;101199.84;5040135;28;20685;-80
2022/10/12 09:06:33;;;;;;;7.27;3.80;;;;;;;7.49;100.00;101205.09;5040559;28;20293;-82
2022/10/12 09:09:13;;;;;;;9.70;4.73;;;;;;;7.58;100.00;101224.19;5041425;28;20225;-82
2022/10/12 09:11:58;;;;;;;10.20;3.90;;;;;;;7.60;100.00;101222.47;5038365;28;20205;-82
2022/10/12 09:14:28;;;;;;;11.97;5.33;;;;;;;7.69;100.00;101232.91;5037058;28;20237;-81
2022/10/12 09:16:56;;;;;;;7.47;4.57;;;;;;;7.75;100.00;101245.97;5035207;28;20214;-82
2022/10/12 09:19:30;;;;;;;8.77;4.90;;;;;;;7.85;100.00;101249.44;5038821;28;20199;-82
2022/10/12 09:21:57;;;;;;;17.27;5.30;;;;;;;7.90;100.00;101252.97;5038677;28;20252;-83
2022/10/12 09:24:27;;;;;;;9.93;5.00;;;;;;;8.01;100.00;101264.28;5040474;28;20205;-80
2022/10/12 09:26:59;;;;;;;8.63;4.30;;;;;;;8.11;100.00;101270.41;5039202;28;20202;-84
2022/10/12 09:29:28;;;;;;;7.53;4.47;;;;;;;8.19;100.00;101270.44;5039199;28;20619;-81
2022/10/12 09:32:26;;;;;;;9.90;4.40;;;;;;;8.27;100.00;101274.78;5037978;28;20224;-81
2022/10/12 09:34:56;;;;;;;10.07;4.17;;;;;;;8.30;100.00;101271.34;5019583;28;20230;-80
2022/10/12 09:37:24;;;;;;;9.87;5.00;;;;;;;8.37;100.00;101265.31;5034134;28;20203;-82
2022/10/12 09:39:51;;;;;;;15.93;5.10;;;;;;;8.46;100.00;101264.47;5037911;28;20198;-82
2022/10/12 09:42:17;;;;;;;11.03;4.60;;;;;;;8.52;100.00;101261.91;5037479;28;20228;-82
2022/10/12 09:44:47;;;;;;;7.90;5.00;;;;;;;8.63;100.00;101278.41;5039236;28;20210;-79
2022/10/12 09:47:27;;;;;;;11.73;5.30;;;;;;;8.73;100.00;101271.50;5038871;28;20202;-80
2022/10/12 09:49:59;;;;;;;10.93;4.97;;;;;;;8.81;100.00;101288.00;5039099;28;20293;-80
2022/10/12 09:52:30;;;;;;;5.97;3.80;;;;;;;8.94;100.00;101314.94;5041221;28;20233;-81
2022/10/12 09:55:00;;;;;;;9.27;5.20;;;;;;;9.06;100.00;101312.34;5038832;28;20203;-80
2022/10/12 09:57:30;;;;;;;12.13;4.20;;;;;;;9.21;100.00;101327.13;5040090;28;20199;-81
2022/10/12 09:59:57;;;;;;;10.17;3.23;;;;;;;9.23;100.00;101329.72;5037302;28;20199;-81
2022/10/12 10:02:25;;;;;;;7.07;3.57;;;;;;;9.25;100.00;101328.00;5037142;28;20232;-83
2022/10/12 10:04:52;;;;;;;8.67;4.03;;;;;;;9.34;100.00;101314.97;5036702;28;20265;-81
2022/10/12 10:07:23;;;;;;;11.37;3.27;;;;;;;9.48;98.21;101359.28;5038479;28;20198;-83
2022/10/12 10:10:15;;;;;;;6.80;2.83;;;;;;;9.60;98.15;101374.91;5037858;28;20206;-82
2022/10/12 10:12:48;;;;;;;4.47;3.40;;;;;;;9.66;95.17;101419.22;5034552;28;20218;-80
2022/10/12 10:15:21;;;;;;;5.60;2.90;;;;;;;9.76;93.49;101451.41;5038396;28;20221;-81
2022/10/12 10:17:52;;;;;;;8.67;3.23;;;;;;;9.91;91.87;101516.63;5037597;28;20198;-83
2022/10/12 10:20:27;;;;;;;8.30;2.60;;;;;;;10.02;92.21;101515.75;5031705;28;20198;-83
2022/10/12 10:22:55;;;;;;;5.87;2.63;;;;;;;10.07;89.99;101554.00;5038496;28;20645;-81
2022/10/12 10:25:24;;;;;;;3.07;2.13;;;;;;;10.18;88.53;101598.38;5037213;28;20664;-83
2022/10/12 10:28:08;;;;;;;6.60;2.20;;;;;;;10.30;86.26;101645.38;5040082;28;20298;-80
2022/10/12 10:30:37;;;;;;;4.03;1.80;;;;;;;10.40;87.84;101668.91;5039228;28;20579;-81
2022/10/12 10:33:13;;;;;;;8.53;2.17;;;;;;;10.46;88.73;101633.22;5038722;28;20241;-81
2022/10/12 10:35:40;;;;;;;11.90;2.33;;;;;;;10.52;90.22;101575.81;5031732;28;20263;-82
2022/10/12 10:38:15;;;;;;;6.43;2.10;;;;;;;10.55;89.74;101554.06;5037814;28;20206;-83
2022/10/12 10:40:41;;;;;;;5.80;2.00;;;;;;;10.60;87.99;101594.06;5034223;28;20196;-83
2022/10/12 10:43:25;;;;;;;5.63;2.17;;;;;;;10.69;89.09;101603.66;5037491;28;20230;-84
2022/10/12 10:45:54;;;;;;;4.03;1.50;;;;;;;10.80;85.70;101635.88;5035771;28;20267;-80
2022/10/12 10:48:24;;;;;;;10.33;1.77;;;;;;;10.95;83.39;101699.41;5032715;28;20199;-81
2022/10/12 10:50:55;;;;;;;6.97;1.90;;;;;;;11.00;84.42;101684.59;5036940;28;20204;-84
2022/10/12 10:53:25;;;;;;;6.43;1.80;;;;;;;11.08;83.55;101702.03;5032644;28;20232;-82
2022/10/12 10:55:57;;;;;;;5.77;1.70;;;;;;;11.21;80.02;101783.03;5037112;28;20650;-83
2022/10/12 10:58:29;;;;;;;4.23;2.00;;;;;;;11.28;79.54;101827.47;5033675;28;20198;-82
2022/10/12 11:01:01;;;;;;;4.93;1.70;;;;;;;11.34;78.85;101865.81;5037660;28;20203;-81
2022/10/12 11:03:34;;;;;;;4.80;1.83;;;;;;;11.44;76.49;101917.25;5037579;28;20221;-83
2022/10/12 11:06:15;;;;;;;3.87;1.80;;;;;;;11.52;75.13;101940.78;5031764;28;20198;-83
2022/10/12 11:08:44;;;;;;;6.03;1.87;;;;;;;11.63;73.24;102009.66;5031595;28;20205;-82
2022/10/12 11:11:15;;;;;;;5.20;2.00;;;;;;;11.72;74.44;102066.38;5036325;28;20206;-80
2022/10/12 11:13:45;;;;;;;3.63;2.10;;;;;;;11.74;75.49;101954.75;5031668;28;20337;-81
2022/10/12 11:16:26;;;;;;;5.03;1.97;;;;;;;11.81;72.46;102000.97;5037688;28;20252;-81
2022/10/12 11:18:55;;;;;;;4.37;3.23;;;;;;;11.94;72.52;102037.66;5037297;28;20201;-80
2022/10/12 11:21:24;;;;;;;4.97;2.03;;;;;;;11.95;71.67;102016.72;5032068;28;20218;-82
2022/10/12 11:23:58;;;;;;;4.47;1.73;;;;;;;12.08;71.46;102077.81;5037783;28;20195;-81
2022/10/12 11:26:29;;;;;;;7.53;2.33;;;;;;;12.19;70.94;102062.09;5033299;28;20226;-82
2022/10/12 11:28:59;;;;;;;3.00;1.80;;;;;;;12.44;68.41;102104.88;5037824;28;20677;-81
2022/10/12 11:31:31;;;;;;;4.93;1.57;;;;;;;12.48;70.78;102117.97;5036216;28;20199;-85
2022/10/12 11:34:02;;;;;;;5.30;2.27;;;;;;;12.48;69.30;102080.44;5036285;28;20231;-85
2022/10/12 11:36:31;;;;;;;2.53;2.00;;;;;;;12.41;71.04;102073.47;5036905;28;20742;-84
2022/10/12 11:39:02;;;;;;;4.70;1.70;;;;;;;12.48;64.19;102072.56;5037330;28;20204;-82
2022/10/12 11:41:37;;;;;;;5.60;1.70;;;;;;;12.66;66.61;102145.91;5037348;28;20211;-85